createdAt,value
2022-11-16T00:02:13.165Z,17.63
2022-11-16T00:04:39.801Z,19.63
2022-11-16T00:07:06.488Z,20.17
2022-11-16T00:09:33.149Z,18.65
2022-11-16T00:12:01.742Z,20.25
2022-11-16T00:14:29.679Z,17.35
2022-11-16T00:16:56.601Z,19.42
2022-11-16T00:19:23.444Z,18.13
2022-11-16T00:21:50.888Z,20.20
2022-11-16T00:24:18.044Z,17.98
2022-11-16T00:26:45.073Z,22.17
2022-11-16T00:29:17.097Z,19.17
2022-11-16T00:31:44.582Z,21.40
2022-11-16T00:34:11.197Z,20.90
2022-11-16T00:36:37.825Z,20.88
2022-11-16T00:39:04.759Z,17.70
2022-11-16T00:41:31.546Z,18.75
2022-11-16T00:43:58.144Z,16.60
2022-11-16T00:46:24.848Z,17.05
2022-11-16T00:48:51.415Z,20.13
2022-11-16T00:51:17.969Z,19.48
2022-11-16T00:53:44.529Z,19.00
2022-11-16T00:56:11.102Z,20.20
2022-11-16T00:58:42.883Z,18.25
2022-11-16T01:01:11.686Z,19.60
2022-11-16T01:03:38.584Z,20.02
2022-11-16T01:06:06.420Z,21.80
2022-11-16T01:08:33.705Z,19.73
2022-11-16T01:11:20.445Z,20.40
2022-11-16T01:13:47.849Z,21.05
2022-11-16T01:16:15.533Z,19.05
2022-11-16T01:18:42.664Z,18.77
2022-11-16T01:21:09.714Z,19.98
2022-11-16T01:23:36.290Z,20.95
2022-11-16T01:26:02.970Z,18.75
2022-11-16T01:28:33.073Z,18.77
2022-11-16T01:31:00.704Z,20.33
2022-11-16T01:33:29.087Z,18.35
2022-11-16T01:35:55.929Z,20.10
2022-11-16T01:38:29.398Z,16.77
2022-11-16T01:40:56.828Z,16.92
2022-11-16T01:43:25.291Z,19.10
2022-11-16T01:45:57.049Z,16.95
2022-11-16T01:48:26.002Z,19.05
2022-11-16T01:50:54.051Z,18.33
2022-11-16T01:53:20.744Z,16.20
2022-11-16T01:55:52.177Z,17.83
2022-11-16T01:58:29.961Z,18.75
2022-11-16T02:01:02.760Z,18.08
2022-11-16T02:03:44.724Z,19.90
2022-11-16T02:06:14.442Z,17.92
2022-11-16T02:09:12.258Z,21.63
2022-11-16T02:11:58.167Z,21.48
2022-11-16T02:14:32.759Z,21.58
2022-11-16T02:17:02.696Z,21.73
2022-11-16T02:20:03.863Z,20.95
2022-11-16T02:22:30.552Z,22.77
2022-11-16T02:25:06.512Z,22.30
2022-11-16T02:27:33.084Z,22.77
2022-11-16T02:29:59.659Z,23.50
2022-11-16T02:32:35.149Z,22.73
2022-11-16T02:35:05.047Z,21.35
2022-11-16T02:37:33.612Z,20.50
2022-11-16T02:40:02.429Z,23.88
2022-11-16T02:42:49.180Z,22.42
2022-11-16T02:45:18.744Z,25.77
2022-11-16T02:47:46.080Z,22.25
2022-11-16T02:50:16.163Z,21.92
2022-11-16T02:52:42.690Z,21.70
2022-11-16T02:55:10.716Z,21.20
2022-11-16T02:57:57.420Z,22.88
2022-11-16T03:00:28.145Z,21.42
2022-11-16T03:02:59.403Z,21.95
2022-11-16T03:05:32.453Z,23.08
2022-11-16T03:08:09.104Z,23.98
2022-11-16T03:10:56.892Z,22.92
2022-11-16T03:13:26.695Z,24.63
2022-11-16T03:15:54.314Z,22.17
2022-11-16T03:18:23.375Z,23.23
2022-11-16T03:20:52.263Z,24.83
2022-11-16T03:23:19.812Z,24.25
2022-11-16T03:25:55.364Z,23.77
2022-11-16T03:28:25.354Z,22.38
2022-11-16T03:31:15.183Z,23.35
2022-11-16T03:33:44.162Z,23.30
2022-11-16T03:36:14.279Z,21.63
2022-11-16T03:38:42.626Z,23.08
2022-11-16T03:41:10.360Z,23.02
2022-11-16T03:43:38.970Z,23.70
2022-11-16T03:46:06.168Z,24.63
2022-11-16T03:48:37.074Z,24.30
2022-11-16T03:51:08.749Z,23.67
2022-11-16T03:53:35.833Z,22.55
2022-11-16T03:56:02.993Z,22.52
2022-11-16T03:58:29.762Z,24.88
2022-11-16T04:00:57.058Z,22.48
2022-11-16T04:03:23.832Z,24.00
2022-11-16T04:06:09.366Z,25.80
2022-11-16T04:08:54.962Z,22.95
2022-11-16T04:11:41.268Z,22.85
2022-11-16T04:14:36.124Z,21.67
2022-11-16T04:17:21.846Z,23.30
2022-11-16T04:20:07.768Z,23.73
2022-11-16T04:23:01.053Z,20.33
2022-11-16T04:25:31.960Z,24.23
2022-11-16T04:28:14.243Z,24.60
2022-11-16T04:31:23.078Z,29.85
2022-11-16T04:34:16.040Z,24.67
2022-11-16T04:37:06.381Z,25.85
2022-11-16T04:39:32.970Z,21.65
2022-11-16T04:42:14.729Z,25.98
2022-11-16T04:45:01.831Z,25.55
2022-11-16T04:47:35.065Z,22.88
2022-11-16T04:50:02.144Z,23.98
2022-11-16T04:52:28.875Z,22.00
2022-11-16T04:54:55.886Z,23.65
2022-11-16T04:57:22.821Z,22.88
2022-11-16T04:59:50.108Z,23.13
2022-11-16T05:02:17.012Z,25.05
2022-11-16T05:04:48.860Z,22.58
2022-11-16T05:07:17.903Z,23.75
2022-11-16T05:09:46.783Z,27.48
2022-11-16T05:12:14.981Z,28.42
2022-11-16T05:14:43.140Z,30.73
2022-11-16T05:17:09.795Z,26.67
2022-11-16T05:19:55.013Z,29.35
2022-11-16T05:22:23.296Z,26.58
2022-11-16T05:24:51.237Z,28.77
2022-11-16T05:27:18.350Z,28.73
2022-11-16T05:29:45.263Z,28.48
2022-11-16T05:32:15.882Z,27.50
2022-11-16T05:34:42.444Z,25.40
2022-11-16T05:37:09.401Z,23.52
2022-11-16T05:39:36.040Z,25.40
2022-11-16T05:42:03.096Z,23.98
2022-11-16T05:44:30.003Z,23.30
2022-11-16T05:46:56.607Z,25.10
2022-11-16T05:49:23.553Z,27.63
2022-11-16T05:51:50.966Z,27.40
2022-11-16T05:54:20.422Z,27.23
2022-11-16T05:56:47.607Z,30.20
2022-11-16T05:59:17.786Z,30.77
2022-11-16T06:01:45.324Z,29.67
2022-11-16T06:04:12.000Z,30.65
2022-11-16T06:06:39.138Z,31.15
2022-11-16T06:09:06.131Z,26.75
2022-11-16T06:11:35.950Z,29.73
2022-11-16T06:14:04.157Z,25.85
2022-11-16T06:16:31.031Z,23.52
2022-11-16T06:18:59.296Z,23.50
2022-11-16T06:21:25.804Z,23.02
2022-11-16T06:23:53.647Z,24.10
2022-11-16T06:26:20.262Z,23.92
2022-11-16T06:28:47.556Z,24.88
2022-11-16T06:31:14.419Z,21.92
2022-11-16T06:33:41.818Z,26.90
2022-11-16T06:36:15.711Z,27.92
2022-11-16T06:38:42.610Z,24.95
2022-11-16T06:41:09.767Z,25.80
2022-11-16T06:43:41.950Z,28.02
2022-11-16T06:46:08.714Z,27.80
2022-11-16T06:48:35.537Z,26.77
2022-11-16T06:51:07.230Z,26.70
2022-11-16T06:53:34.383Z,25.48
2022-11-16T06:56:03.084Z,23.88
2022-11-16T06:58:31.719Z,25.58
2022-11-16T07:00:58.728Z,26.17
2022-11-16T07:03:25.324Z,25.55
2022-11-16T07:05:51.925Z,24.45
2022-11-16T07:08:19.483Z,23.52
2022-11-16T07:10:45.970Z,22.83
2022-11-16T07:13:12.417Z,22.70
2022-11-16T07:15:39.226Z,23.50
2022-11-16T07:18:07.618Z,21.15
2022-11-16T07:20:37.572Z,20.48
2022-11-16T07:23:04.421Z,21.52
2022-11-16T07:25:32.437Z,24.27
2022-11-16T07:27:59.275Z,25.23
2022-11-16T07:30:26.247Z,26.52
2022-11-16T07:33:02.413Z,22.58
2022-11-16T07:36:08.174Z,22.83
2022-11-16T07:38:35.148Z,21.05
2022-11-16T07:41:03.594Z,24.08
2022-11-16T07:43:34.978Z,26.50
2022-11-16T07:48:58.516Z,23.33
2022-11-16T07:51:43.749Z,22.10
2022-11-16T07:54:19.831Z,22.80
2022-11-16T07:56:46.432Z,21.42
2022-11-16T07:59:13.292Z,24.63
2022-11-16T08:01:43.327Z,20.33
2022-11-16T08:04:11.263Z,21.45
2022-11-16T08:06:38.300Z,18.30
2022-11-16T08:09:05.021Z,18.17
2022-11-16T08:11:33.502Z,21.77
2022-11-16T08:14:00.096Z,19.42
2022-11-16T08:16:26.959Z,21.08
2022-11-16T08:19:02.262Z,18.60
2022-11-16T08:21:28.908Z,14.35
2022-11-16T08:23:58.719Z,18.58
2022-11-16T08:26:25.803Z,13.63
2022-11-16T08:28:58.187Z,11.35
2022-11-16T08:31:29.658Z,17.05
2022-11-16T08:34:05.906Z,13.88
2022-11-16T08:36:33.974Z,13.82
2022-11-16T08:39:01.806Z,17.00
2022-11-16T08:41:30.907Z,13.63
2022-11-16T08:43:59.273Z,15.40
2022-11-16T08:46:25.856Z,13.48
2022-11-16T08:49:00.696Z,11.65
2022-11-16T08:51:27.140Z,12.35
2022-11-16T08:54:00.028Z,10.82
2022-11-16T08:56:29.829Z,10.52
2022-11-16T08:58:59.195Z,13.23
2022-11-16T09:01:27.918Z,8.68
2022-11-16T09:03:54.761Z,10.45
2022-11-16T09:06:21.769Z,8.95
2022-11-16T09:08:48.442Z,10.23
2022-11-16T09:11:16.241Z,8.02
2022-11-16T09:13:43.404Z,11.13
2022-11-16T09:16:10.372Z,9.20
2022-11-16T09:18:37.134Z,11.63
2022-11-16T09:21:03.879Z,9.18
2022-11-16T09:23:30.357Z,10.48
2022-11-16T09:26:00.223Z,9.13
2022-11-16T09:28:27.328Z,11.63
2022-11-16T09:30:53.739Z,14.90
2022-11-16T09:33:20.265Z,11.43
2022-11-16T09:35:47.112Z,13.27
2022-11-16T09:38:17.658Z,9.68
2022-11-16T09:40:50.634Z,11.68
2022-11-16T09:43:22.818Z,11.90
2022-11-16T09:45:56.114Z,10.00
2022-11-16T09:48:22.860Z,11.68
2022-11-16T09:50:55.308Z,7.63
2022-11-16T09:53:34.351Z,8.40
2022-11-16T09:56:06.479Z,6.40
2022-11-16T09:58:36.349Z,7.85
2022-11-16T10:01:23.815Z,6.78
2022-11-16T10:03:53.995Z,6.47
2022-11-16T10:06:27.714Z,7.35
2022-11-16T10:08:56.635Z,7.90
2022-11-16T10:11:41.526Z,9.30
2022-11-16T10:14:13.944Z,8.13
2022-11-16T10:16:44.784Z,7.90
2022-11-16T10:19:18.385Z,7.50
2022-11-16T10:21:48.066Z,8.30
2022-11-16T10:24:23.935Z,7.40
2022-11-16T10:26:55.379Z,7.57
2022-11-16T10:29:37.038Z,7.97
2022-11-16T10:32:03.561Z,8.73
2022-11-16T10:34:51.617Z,9.75
2022-11-16T10:37:18.499Z,9.02
2022-11-16T10:39:46.880Z,18.40
2022-11-16T10:42:19.122Z,6.97
2022-11-16T10:44:47.576Z,6.78
2022-11-16T10:47:20.862Z,6.30
2022-11-16T10:49:50.443Z,6.53
2022-11-16T10:52:16.856Z,5.50
2022-11-16T10:54:44.610Z,5.07
2022-11-16T10:57:14.211Z,5.32
2022-11-16T10:59:44.825Z,7.70
2022-11-16T11:02:34.796Z,6.18
2022-11-16T11:05:02.347Z,7.03
2022-11-16T11:07:39.895Z,6.97
2022-11-16T11:10:21.250Z,5.30
2022-11-16T11:13:01.468Z,6.65
2022-11-16T11:15:28.160Z,5.05
2022-11-16T11:18:13.217Z,5.32
2022-11-16T11:20:44.739Z,5.72
2022-11-16T11:23:16.406Z,5.00
2022-11-16T11:25:56.358Z,6.82
2022-11-16T11:28:33.625Z,13.10
2022-11-16T11:31:02.877Z,5.70
2022-11-16T11:33:49.561Z,7.13
2022-11-16T11:36:18.797Z,5.43
2022-11-16T11:39:17.790Z,6.60
2022-11-16T11:41:45.454Z,6.40
2022-11-16T11:44:16.296Z,5.18
2022-11-16T11:47:35.276Z,6.90
2022-11-16T11:49:40.600Z,5.60
2022-11-16T11:52:14.434Z,6.20
2022-11-16T11:54:47.694Z,4.30
2022-11-16T11:57:20.560Z,3.85
2022-11-16T11:59:47.308Z,6.95
2022-11-16T12:02:26.475Z,3.63
2022-11-16T12:05:05.060Z,5.05
2022-11-16T12:07:37.158Z,10.02
2022-11-16T12:10:03.632Z,11.13
2022-11-16T12:12:48.610Z,7.10
2022-11-16T12:15:23.838Z,5.43
2022-11-16T12:18:05.815Z,10.73
2022-11-16T12:20:42.824Z,6.15
2022-11-16T12:23:24.553Z,5.05
2022-11-16T12:26:09.854Z,5.75
2022-11-16T12:28:50.893Z,4.40
2022-11-16T12:31:17.789Z,6.03
2022-11-16T12:33:48.091Z,6.25
2022-11-16T12:36:29.202Z,5.32
2022-11-16T12:38:58.464Z,9.57
2022-11-16T12:41:33.900Z,5.90
2022-11-16T12:44:02.246Z,10.30
2022-11-16T12:46:51.613Z,7.80
2022-11-16T12:49:21.220Z,7.47
2022-11-16T12:51:50.713Z,5.97
2022-11-16T12:54:29.221Z,6.07
2022-11-16T12:56:58.772Z,7.28
2022-11-16T12:59:43.806Z,5.32
2022-11-16T13:02:48.688Z,7.10
2022-11-16T13:05:23.332Z,10.65
2022-11-16T13:07:54.563Z,9.93
2022-11-16T13:10:24.576Z,7.75
2022-11-16T13:12:55.855Z,9.85
2022-11-16T13:15:38.542Z,8.15
2022-11-16T13:18:07.408Z,8.50
2022-11-16T13:20:45.645Z,6.75
2022-11-16T13:23:21.152Z,8.10
2022-11-16T13:26:13.622Z,8.30
2022-11-16T13:28:44.387Z,8.27
2022-11-16T13:31:14.445Z,12.52
2022-11-16T13:33:49.331Z,13.57
2022-11-16T13:36:32.527Z,11.68
2022-11-16T13:38:58.988Z,5.55
2022-11-16T13:41:26.310Z,6.15
2022-11-16T13:43:53.009Z,5.25
2022-11-16T13:46:53.533Z,5.20
2022-11-16T13:49:06.245Z,8.43
2022-11-16T13:51:32.732Z,6.30
2022-11-16T13:56:49.515Z,13.43
2022-11-16T13:59:16.348Z,8.82
2022-11-16T14:01:54.417Z,10.98
2022-11-16T14:04:35.141Z,16.40
2022-11-16T14:07:01.850Z,12.38
2022-11-16T14:09:41.492Z,12.60
2022-11-16T14:12:43.584Z,18.25
2022-11-16T14:15:15.019Z,13.18
2022-11-16T14:18:01.010Z,12.02
2022-11-16T14:20:37.139Z,15.32
2022-11-16T14:23:15.428Z,17.50
2022-11-16T14:25:56.935Z,14.05
2022-11-16T14:28:38.924Z,11.40
2022-11-16T14:31:20.484Z,16.20
2022-11-16T14:33:49.880Z,19.83
2022-11-16T14:36:16.404Z,11.93
2022-11-16T14:38:43.382Z,13.98
2022-11-16T14:41:19.357Z,14.35
2022-11-16T14:43:49.681Z,25.92
2022-11-16T14:46:26.039Z,15.15
2022-11-16T14:48:54.280Z,10.65
2022-11-16T14:51:22.734Z,10.38
2022-11-16T14:53:50.771Z,14.00
2022-11-16T14:56:18.093Z,11.00
2022-11-16T14:58:51.920Z,13.02
2022-11-16T15:01:20.415Z,9.50
2022-11-16T15:03:49.884Z,11.02
2022-11-16T15:06:16.475Z,9.15
2022-11-16T15:08:45.334Z,12.40
2022-11-16T15:11:20.406Z,11.63
2022-11-16T15:13:47.287Z,14.30
2022-11-16T15:16:17.731Z,11.02
2022-11-16T15:19:00.920Z,11.00
2022-11-16T15:21:28.008Z,12.60
2022-11-16T15:24:23.621Z,12.90
2022-11-16T15:26:40.964Z,11.07
2022-11-16T15:29:13.632Z,10.18
2022-11-16T15:31:41.535Z,10.20
2022-11-16T15:34:11.637Z,8.13
2022-11-16T15:36:39.171Z,6.57
2022-11-16T15:39:06.753Z,8.65
2022-11-16T15:41:34.083Z,9.13
2022-11-16T15:44:16.674Z,7.78
2022-11-16T15:46:48.118Z,12.45
2022-11-16T15:49:24.602Z,11.95
2022-11-16T15:51:51.074Z,12.15
2022-11-16T15:54:25.776Z,10.50
2022-11-16T15:56:53.889Z,7.35
2022-11-16T15:59:23.879Z,7.68
2022-11-16T16:01:50.664Z,8.13
2022-11-16T16:04:17.803Z,10.02
2022-11-16T16:06:50.317Z,7.22
2022-11-16T16:09:33.689Z,7.20
2022-11-16T16:12:12.128Z,11.63
2022-11-16T16:14:38.738Z,6.75
2022-11-16T16:17:05.186Z,9.27
2022-11-16T16:19:38.354Z,9.77
2022-11-16T16:22:05.693Z,8.80
2022-11-16T16:24:41.271Z,7.68
2022-11-16T16:27:17.088Z,7.20
2022-11-16T16:29:44.291Z,6.85
2022-11-16T16:32:20.106Z,7.70
2022-11-16T16:34:46.624Z,6.93
2022-11-16T16:37:13.615Z,10.40
2022-11-16T16:39:40.999Z,7.60
2022-11-16T16:42:11.891Z,9.80
2022-11-16T16:44:38.651Z,6.82
2022-11-16T16:47:05.316Z,7.18
2022-11-16T16:49:31.819Z,6.93
2022-11-16T16:51:58.560Z,6.65
2022-11-16T16:54:25.468Z,6.90
2022-11-16T16:56:51.940Z,6.95
2022-11-16T16:59:18.356Z,6.32
2022-11-16T17:01:44.764Z,8.07
2022-11-16T17:04:11.525Z,8.70
2022-11-16T17:06:39.271Z,7.43
2022-11-16T17:09:08.796Z,8.82
2022-11-16T17:11:35.469Z,7.43
2022-11-16T17:14:05.441Z,8.15
2022-11-16T17:16:32.595Z,7.18
2022-11-16T17:18:59.079Z,5.53
2022-11-16T17:21:25.559Z,5.57
2022-11-16T17:23:52.603Z,7.40
2022-11-16T17:26:20.251Z,7.03
2022-11-16T17:28:46.777Z,5.68
2022-11-16T17:31:13.526Z,6.45
2022-11-16T17:33:42.901Z,6.60
2022-11-16T17:36:12.733Z,7.38
2022-11-16T17:38:39.542Z,6.28
2022-11-16T17:41:07.243Z,6.63
2022-11-16T17:43:34.039Z,6.95
2022-11-16T17:46:03.452Z,6.47
2022-11-16T17:48:29.934Z,5.65
2022-11-16T17:50:56.348Z,8.25
2022-11-16T17:53:22.855Z,7.35
2022-11-16T17:55:49.283Z,5.93
2022-11-16T17:58:15.802Z,7.95
2022-11-16T18:00:42.226Z,8.40
2022-11-16T18:03:08.756Z,9.98
2022-11-16T18:05:35.180Z,8.55
2022-11-16T18:08:01.660Z,8.38
2022-11-16T18:10:28.088Z,7.75
2022-11-16T18:12:54.521Z,8.07
2022-11-16T18:15:28.572Z,9.00
2022-11-16T18:17:56.052Z,10.18
2022-11-16T18:20:24.268Z,7.82
2022-11-16T18:22:50.929Z,5.72
2022-11-16T18:25:17.476Z,8.63
2022-11-16T18:27:43.930Z,8.82
2022-11-16T18:30:10.642Z,6.93
2022-11-16T18:32:37.211Z,5.93
2022-11-16T18:35:09.466Z,7.85
2022-11-16T18:37:36.096Z,7.50
2022-11-16T18:40:02.928Z,6.88
2022-11-16T18:42:29.357Z,6.47
2022-11-16T18:44:55.842Z,7.72
2022-11-16T18:47:22.328Z,7.40
2022-11-16T18:49:48.735Z,7.95
2022-11-16T18:52:15.246Z,8.00
2022-11-16T18:54:41.673Z,7.05
2022-11-16T18:57:09.076Z,9.55
2022-11-16T18:59:35.566Z,6.95
2022-11-16T19:02:02.067Z,6.80
2022-11-16T19:04:28.688Z,6.35
2022-11-16T19:06:55.187Z,8.45
2022-11-16T19:09:21.743Z,7.90
2022-11-16T19:11:48.442Z,7.93
2022-11-16T19:14:15.029Z,9.77
2022-11-16T19:16:49.988Z,8.15
2022-11-16T19:19:19.120Z,10.40
2022-11-16T19:21:45.599Z,8.55
2022-11-16T19:24:12.037Z,7.88
2022-11-16T19:26:38.731Z,9.18
2022-11-16T19:29:05.230Z,10.88
2022-11-16T19:31:32.383Z,11.85
2022-11-16T19:33:59.864Z,10.18
2022-11-16T19:36:27.138Z,10.65
2022-11-16T19:38:53.795Z,9.25
2022-11-16T19:41:22.296Z,10.27
2022-11-16T19:43:52.835Z,9.18
2022-11-16T19:46:24.256Z,9.52
2022-11-16T19:48:51.298Z,10.57
2022-11-16T19:51:19.496Z,10.43
2022-11-16T19:53:46.372Z,10.98
2022-11-16T19:56:14.531Z,10.55
2022-11-16T19:58:41.255Z,11.18
2022-11-16T20:01:09.869Z,10.65
2022-11-16T20:03:38.371Z,13.00
2022-11-16T20:06:06.193Z,12.10
2022-11-16T20:08:32.707Z,11.70
2022-11-16T20:10:59.136Z,11.10
2022-11-16T20:13:25.628Z,11.27
2022-11-16T20:15:52.072Z,11.05
2022-11-16T20:18:18.642Z,11.30
2022-11-16T20:20:45.125Z,10.98
2022-11-16T20:23:14.584Z,11.05
2022-11-16T20:25:41.071Z,14.38
2022-11-16T20:28:07.553Z,9.82
2022-11-16T20:30:34.012Z,10.85
2022-11-16T20:33:00.443Z,11.93
2022-11-16T20:35:26.975Z,11.50
2022-11-16T20:37:53.433Z,11.23
2022-11-16T20:40:19.880Z,12.13
2022-11-16T20:42:46.918Z,11.13
2022-11-16T20:45:13.407Z,11.48
2022-11-16T20:47:39.958Z,14.20
2022-11-16T20:50:06.492Z,9.25
2022-11-16T20:52:33.651Z,10.45
2022-11-16T20:55:00.821Z,10.88
2022-11-16T20:57:27.243Z,9.68
2022-11-16T20:59:53.759Z,11.10
2022-11-16T21:02:20.224Z,10.68
2022-11-16T21:04:46.669Z,10.65
2022-11-16T21:07:13.405Z,12.25
2022-11-16T21:09:58.775Z,11.52
2022-11-16T21:12:43.716Z,8.88
2022-11-16T21:15:10.288Z,10.38
2022-11-16T21:17:36.773Z,10.23
2022-11-16T21:20:26.352Z,10.38
2022-11-16T21:22:50.534Z,10.52
2022-11-16T21:25:17.117Z,9.93
2022-11-16T21:27:43.614Z,10.48
2022-11-16T21:30:10.312Z,10.38
2022-11-16T21:32:36.803Z,8.00
2022-11-16T21:35:03.297Z,9.32
2022-11-16T21:37:30.042Z,9.18
2022-11-16T21:39:56.575Z,8.30
2022-11-16T21:42:23.001Z,8.85
2022-11-16T21:44:49.504Z,10.57
2022-11-16T21:47:15.912Z,7.15
2022-11-16T21:50:08.322Z,8.93
2022-11-16T21:52:28.982Z,7.63
2022-11-16T21:55:01.322Z,7.85
2022-11-16T21:57:27.910Z,7.80
2022-11-16T21:59:55.987Z,9.18
2022-11-16T22:02:22.453Z,8.70
2022-11-16T22:05:07.278Z,8.38
2022-11-16T22:07:33.917Z,8.35
2022-11-16T22:10:01.494Z,7.55
2022-11-16T22:15:13.531Z,8.77
2022-11-16T22:17:44.090Z,8.90
2022-11-16T22:20:11.115Z,7.60
2022-11-16T22:22:37.669Z,6.22
2022-11-16T22:25:04.781Z,6.47
2022-11-16T22:27:31.550Z,8.95
2022-11-16T22:29:58.115Z,8.00
2022-11-16T22:32:25.171Z,6.03
2022-11-16T22:34:52.090Z,7.95
2022-11-16T22:37:18.670Z,7.57
2022-11-16T22:39:45.342Z,6.68
2022-11-16T22:42:11.902Z,8.65
2022-11-16T22:44:38.487Z,8.00
2022-11-16T22:47:05.125Z,8.38
2022-11-16T22:49:31.674Z,5.60
2022-11-16T22:51:58.274Z,6.93
2022-11-16T22:54:28.601Z,5.72
2022-11-16T22:56:55.644Z,5.70
2022-11-16T22:59:22.220Z,6.88
2022-11-16T23:01:48.819Z,7.47
2022-11-16T23:04:15.435Z,7.82
2022-11-16T23:06:42.092Z,5.57
2022-11-16T23:09:08.649Z,8.00
2022-11-16T23:11:53.541Z,5.00
2022-11-16T23:14:52.333Z,5.30
2022-11-16T23:17:18.918Z,6.22
2022-11-16T23:20:04.000Z,6.75
2022-11-16T23:22:48.996Z,4.68
2022-11-16T23:25:34.417Z,7.00
2022-11-16T23:28:06.778Z,4.88
2022-11-16T23:30:36.669Z,5.47
2022-11-16T23:33:03.431Z,6.65
2022-11-16T23:35:29.983Z,7.47
2022-11-16T23:37:57.703Z,6.28
2022-11-16T23:40:25.887Z,6.00
2022-11-16T23:43:11.449Z,5.45
2022-11-16T23:45:38.597Z,6.80
2022-11-16T23:48:06.101Z,6.47
2022-11-16T23:50:32.756Z,5.50
2022-11-16T23:52:59.324Z,7.22
2022-11-16T23:55:26.745Z,7.00
2022-11-16T23:57:53.309Z,5.28
